Latest Weather Observations for PORTABLE RFSNSW20

IDN60801

Issued at 6:52 pm EDT Tuesday 10 December 2019 (issued every 10 minutes, with the page automatically refreshed every 10 minutes)

About weather observations | Map of weather stations | Latest weather observations for NSW | Other Formats
Station Details ID: 250085 Name: PORTABLE RFSNSW20 Lat: -31.04 Lon: 149.37 Height: 583.0 m

Portable automatic weather stations (PAWS) are operated by other organisations, such as Fire and Emergency Services, and are included here by agreement. Portable stations may be deployed to a location for a short period and their location may be subject to change without notice. Wind observations from these stations are provided from heights of either three (3) or ten (10) metres above ground level (AGL).

Data from the previous 72 hours. | See also: Recent months for locations in New South Wales
Date/Time
EDT
Temp
°C
App
Temp
°C
Dew
Point
°C
Rel
Hum
%
Delta-T
°C
Wind Press
QNH
hPa
Press
MSL
hPa
Rain since
9am
mm
Dir  Spd
km/h
Gust
km/h
Spd
kts
Gust
kts
10/06:40pm 38.0 35.4 3.1 11 18.9 SW 6 9 3 5 - - 0.0
10/06:30pm 37.9 35.2 2.8 11 18.9 S 6 11 3 6 - - 0.0
10/06:20pm 38.0 35.3 2.9 11 18.9 SW 6 11 3 6 - - 0.0
10/06:10pm 37.7 34.9 3.3 12 18.6 WSW 7 11 4 6 - - 0.0
10/06:00pm 37.7 34.9 3.4 12 18.6 WSW 7 11 4 6 - - 0.0
10/05:50pm 37.8 35.4 4.2 12 18.5 SSW 6 7 3 4 - - 0.0
10/05:40pm 38.7 36.2 4.0 12 19.1 W 6 11 3 6 - - 0.0
10/05:30pm 37.6 35.1 3.9 12 18.4 N 6 7 3 4 - - 0.0
10/05:20pm 37.0 34.6 4.1 13 18.0 S 6 9 3 5 - - 0.0
10/05:10pm 37.6 34.3 4.5 13 18.3 SSW 11 13 6 7 - - 0.0
10/05:00pm 38.7 35.4 4.6 12 18.9 WSW 11 15 6 8 - - 0.0
10/04:50pm 39.3 36.9 4.3 11 19.4 S 6 11 3 6 - - 0.0
10/04:40pm 38.1 35.5 4.4 12 18.6 E 7 11 4 6 - - 0.0
10/04:30pm 39.0 36.5 4.5 12 19.2 SSE 7 11 4 6 - - 0.0
10/04:20pm 38.2 35.7 4.0 12 18.8 W 6 9 3 5 - - 0.0
10/04:10pm 37.6 35.2 4.2 12 18.3 SSW 6 9 3 5 - - 0.0
10/04:00pm 38.3 35.4 4.5 12 18.7 W 9 15 5 8 - - 0.0
10/03:50pm 38.9 35.6 4.3 12 19.1 WSW 11 13 6 7 - - 0.0
10/03:40pm 38.7 35.8 4.6 12 18.9 SW 9 13 5 7 - - 0.0
10/03:30pm 38.5 34.7 4.1 12 18.9 WSW 13 17 7 9 - - 0.0
10/03:20pm 39.0 35.7 4.6 12 19.1 W 11 15 6 8 - - 0.0
10/03:10pm 39.1 36.9 5.5 13 18.9 N 6 9 3 5 - - 0.0
10/03:00pm 38.1 35.8 5.6 13 18.3 NW 7 17 4 9 - - 0.0
10/02:50pm 38.0 35.0 6.2 14 18.0 W 11 15 6 8 - - 0.0
10/02:40pm 39.0 37.0 6.1 13 18.7 W 6 13 3 7 - - 0.0
10/02:30pm 38.0 35.0 6.2 14 18.0 WSW 11 15 6 8 - - 0.0
10/02:20pm 38.3 35.7 6.3 14 18.2 WNW 9 13 5 7 - - 0.0
10/02:10pm 37.4 34.2 6.8 15 17.5 WNW 13 20 7 11 - - 0.0
10/02:00pm 37.2 34.1 7.2 16 17.2 N 13 17 7 9 - - 0.0
10/01:50pm 36.6 33.6 7.7 17 16.6 NW 13 17 7 9 - - 0.0
10/01:40pm 37.9 35.9 8.7 17 17.2 W 9 19 5 10 - - 0.0
10/01:30pm 36.5 33.4 5.6 15 17.2 W 11 19 6 10 - - 0.0
10/01:20pm 37.1 34.5 7.7 16 17.0 WNW 11 17 6 9 - - 0.0
10/01:10pm 37.0 35.7 10.0 19 16.1 W 7 11 4 6 - - 0.0
10/01:00pm 36.9 35.0 9.2 18 16.3 WNW 9 15 5 8 - - 0.0
10/12:50pm 36.5 34.1 8.6 18 16.3 NNW 11 13 6 7 - - 0.0
10/12:40pm 35.9 33.6 10.6 21 15.2 NNW 13 17 7 9 - - 0.0
10/12:30pm 35.8 34.3 11.9 23 14.6 NW 11 15 6 8 - - 0.0
10/12:20pm 35.5 34.0 13.1 26 13.9 NW 13 17 7 9 - - 0.0
10/12:10pm 34.5 33.1 13.4 28 13.1 WNW 13 17 7 9 - - 0.0
10/12:00pm 34.8 34.4 14.2 29 13.0 NW 9 15 5 8 - - 0.0
10/11:50am 33.9 33.3 14.6 31 12.2 NNW 11 15 6 8 - - 0.0
10/11:40am 33.4 32.0 13.4 29 12.4 NW 13 15 7 8 - - 0.0
10/11:30am 33.6 32.7 13.8 30 12.3 WNW 11 15 6 8 - - 0.0
10/11:20am 32.8 31.8 14.5 33 11.5 NW 13 17 7 9 - - 0.0
10/11:10am 32.5 31.7 15.1 35 11.0 NW 13 15 7 8 - - 0.0
10/11:00am 32.1 31.2 14.9 35 10.8 WNW 13 15 7 8 - - 0.0
10/10:50am 32.3 31.7 14.6 34 11.1 NW 11 15 6 8 - - 0.0
10/10:40am 31.8 31.3 15.0 36 10.6 NW 11 15 6 8 - - 0.0
10/10:30am 31.4 30.5 14.8 36 10.4 NW 13 17 7 9 - - 0.0
10/10:20am 30.8 29.6 15.0 38 9.9 NW 15 17 8 9 - - 0.0
10/10:10am 30.8 30.0 15.0 38 9.9 NNW 13 19 7 10 - - 0.0
10/10:00am 30.3 29.6 15.3 40 9.4 NW 13 17 7 9 - - 0.0
10/09:50am 30.0 29.3 15.3 41 9.2 NW 13 15 7 8 - - 0.0
10/09:40am 30.1 29.7 15.2 40 9.4 NNW 11 17 6 9 - - 0.0
10/09:30am 29.7 29.3 15.2 41 9.1 NW 11 13 6 7 - - 0.0
10/09:20am 29.4 29.0 15.1 41 8.9 NW 11 13 6 7 - - 0.0
10/09:10am 28.9 28.7 15.7 44 8.3 NW 11 15 6 8 - - 0.0
10/09:00am 28.7 28.4 15.5 44 8.3 NNW 11 13 6 7 - - 0.0
10/08:50am 28.3 28.0 15.5 45 8.0 NNW 11 13 6 7 - - 0.0
10/08:40am 27.8 27.1 15.5 47 7.7 NNW 13 15 7 8 - - 0.0
10/08:30am 27.8 27.6 15.7 47 7.6 NNW 11 13 6 7 - - 0.0
10/08:20am 27.3 27.4 15.6 48 7.3 NNW 9 13 5 7 - - 0.0
10/08:10am 26.6 26.1 15.8 51 6.8 NNW 13 15 7 8 - - 0.0
10/08:00am 26.5 26.8 16.0 52 6.6 NNW 9 15 5 8 - - 0.0
10/07:50am 26.1 26.5 16.2 54 6.2 NNW 9 13 5 7 - - 0.0
10/07:40am 25.8 26.1 16.0 54 6.1 NNW 9 15 5 8 - - 0.0
10/07:30am 25.5 25.9 16.2 56 5.8 N 9 13 5 7 - - 0.0
10/07:20am 24.9 25.3 16.3 59 5.4 N 9 13 5 7 - - 0.0
10/07:10am 24.5 24.9 16.4 60 5.1 N 9 11 5 6 - - 0.0
10/07:00am 24.4 24.8 16.3 60 5.1 N 9 13 5 7 - - 0.0
10/06:50am 24.1 24.5 16.3 61 4.9 N 9 13 5 7 - - 0.0
10/06:40am 24.0 23.9 16.1 61 4.9 N 11 13 6 7 - - 0.0
10/06:30am 23.9 23.8 16.1 61 4.9 N 11 13 6 7 - - 0.0
10/06:20am 23.8 23.7 16.1 62 4.8 N 11 15 6 8 - - 0.0
10/06:10am 23.8 23.7 16.0 61 4.9 N 11 13 6 7 - - 0.0
10/06:00am 23.9 23.4 15.9 61 5.0 N 13 15 7 8 - - 0.0
10/05:50am 24.0 23.5 15.9 60 5.0 N 13 15 7 8 - - 0.0
10/05:40am 24.2 23.7 15.8 59 5.2 N 13 15 7 8 - - 0.0
10/05:30am 24.3 23.4 15.8 59 5.3 N 15 17 8 9 - - 0.0
10/05:20am 24.4 23.4 15.7 58 5.4 N 15 19 8 10 - - 0.0
10/05:10am 24.5 23.1 15.6 57 5.5 N 17 20 9 11 - - 0.0
10/05:00am 24.6 23.1 15.3 56 5.7 N 17 19 9 10 - - 0.0
10/04:50am 24.7 23.5 15.1 55 5.9 N 15 17 8 9 - - 0.0
10/04:40am 24.7 23.5 15.0 54 6.0 N 15 17 8 9 - - 0.0
10/04:30am 24.8 23.1 14.7 53 6.2 N 17 19 9 10 - - 0.0
10/04:20am 25.0 23.3 14.6 52 6.4 N 17 19 9 10 - - 0.0
10/04:10am 24.9 23.3 14.0 50 6.6 N 15 17 8 9 - - 0.0
10/04:00am 25.1 23.8 13.8 49 6.8 N 13 15 7 8 - - 0.0
10/03:50am 25.3 23.7 13.8 49 6.9 N 15 17 8 9 - - 0.0
10/03:40am 25.4 23.7 13.6 48 7.1 N 15 17 8 9 - - 0.0
10/03:30am 25.6 23.8 13.3 46 7.4 N 15 17 8 9 - - 0.0
10/03:20am 25.8 23.5 13.0 45 7.6 NNW 17 19 9 10 - - 0.0
10/03:10am 26.1 23.8 12.9 44 7.9 NNW 17 19 9 10 - - 0.0
10/03:00am 26.3 23.7 11.9 40 8.5 N 17 19 9 10 - - 0.0
10/02:50am 26.6 23.7 11.0 37 9.1 N 17 19 9 10 - - 0.0
10/02:40am 28.5 26.5 10.3 32 10.5 NNW 11 20 6 11 - - 0.0
10/02:30am 30.4 28.8 2.5 17 14.3 CALM 0 0 0 0 - - 0.0
10/02:20am 30.4 29.1 4.1 19 13.9 CALM 0 0 0 0 - - 0.0
10/02:10am 30.5 28.7 3.4 18 14.1 S 2 2 1 1 - - 0.0
10/02:00am 30.6 28.8 3.3 17 14.2 S 2 4 1 2 - - 0.0
10/01:50am 30.9 29.0 2.9 17 14.5 SSE 2 4 1 2 - - 0.0
10/01:40am 30.8 29.0 3.3 17 14.3 SE 2 4 1 2 - - 0.0
10/01:30am 30.8 29.3 3.0 17 14.4 CALM 0 4 0 2 - - 0.0
10/01:20am 30.8 29.3 2.9 17 14.5 CALM 0 0 0 0 - - 0.0
10/01:10am 30.8 28.9 3.0 17 14.4 S 2 2 1 1 - - 0.0
10/01:00am 30.5 29.1 3.7 18 14.1 CALM 0 2 0 1 - - 0.0
10/12:50am 30.6 28.9 3.8 18 14.1 ESE 2 2 1 1 - - 0.0
10/12:40am 30.5 28.7 3.6 18 14.1 ENE 2 4 1 2 - - 0.0
10/12:30am 30.4 28.7 3.8 18 14.0 NE 2 4 1 2 - - 0.0
10/12:20am 30.6 28.8 3.7 18 14.1 NNE 2 6 1 3 - - 0.0
10/12:10am 30.9 28.8 3.7 18 14.3 NNE 4 4 2 2 - - 0.0
10/12:00am 30.9 29.1 3.6 17 14.3 NNE 2 4 1 2 - - 0.0
 
Date/Time
EDT
Temp
°C
App
Temp
°C
Dew
Point
°C
Rel
Hum
%
Delta-T
°C
Wind Press
QNH
hPa
Press
MSL
hPa
Rain since
9am
mm
Dir  Spd
km/h
Gust
km/h
Spd
kts
Gust
kts
09/11:50pm 31.1 29.0 3.7 17 14.4 NNE 4 4 2 2 - - 0.0
09/11:40pm 31.2 29.0 3.6 17 14.5 N 4 4 2 2 - - 0.0
09/11:30pm 31.0 29.2 3.7 17 14.4 N 2 4 1 2 - - 0.0
09/11:20pm 30.9 28.8 3.7 18 14.3 N 4 4 2 2 - - 0.0
09/11:10pm 31.1 29.0 3.7 17 14.4 NNE 4 4 2 2 - - 0.0
09/11:00pm 31.3 29.2 3.7 17 14.5 N 4 4 2 2 - - 0.0
09/10:50pm 31.1 29.0 3.8 17 14.4 NNE 4 4 2 2 - - 0.0
09/10:40pm 30.8 28.6 3.5 17 14.3 NNE 4 6 2 3 - - 0.0
09/10:30pm 31.1 28.9 3.4 17 14.5 NE 4 6 2 3 - - 0.0
09/10:20pm 30.9 28.7 3.6 17 14.3 ENE 4 4 2 2 - - 0.0
09/10:10pm 31.0 28.8 3.5 17 14.4 ENE 4 4 2 2 - - 0.0
09/10:00pm 31.1 29.0 3.7 17 14.4 ENE 4 4 2 2 - - 0.0
09/09:50pm 31.7 30.0 4.0 17 14.7 S 2 6 1 3 - - 0.0
09/09:40pm 32.0 29.5 3.7 16 15.0 SW 6 7 3 4 - - 0.0
09/09:30pm 32.0 29.3 3.5 16 15.0 SW 7 7 4 4 - - 0.0
09/09:20pm 32.1 29.3 3.4 16 15.1 SW 7 7 4 4 - - 0.0
09/09:10pm 32.0 29.2 3.4 16 15.1 SW 7 7 4 4 - - 0.0
09/09:00pm 31.9 29.2 3.5 16 15.0 SW 7 7 4 4 - - 0.0
09/08:50pm 32.1 29.4 3.5 16 15.1 WSW 7 7 4 4 - - 0.0
09/08:40pm 32.2 29.5 3.5 16 15.1 WSW 7 7 4 4 - - 0.0
09/08:30pm 32.0 29.3 3.5 16 15.0 WSW 7 7 4 4 - - 0.0
09/08:20pm 32.2 29.7 3.8 16 15.1 WSW 6 7 3 4 - - 0.0
09/08:10pm 32.4 29.9 3.8 16 15.2 W 6 7 3 4 - - 0.0
09/08:00pm 32.6 30.4 3.6 16 15.4 WNW 4 6 2 3 - - 0.0
09/07:50pm 32.9 31.1 3.7 16 15.5 WNW 2 4 1 2 - - 0.0
09/07:40pm 33.4 31.7 3.8 15 15.8 WNW 2 4 1 2 - - 0.0
09/07:30pm 33.7 31.5 3.6 15 16.0 WNW 4 4 2 2 - - 0.0
09/07:20pm 34.1 31.6 3.5 14 16.3 WNW 6 7 3 4 - - 0.0
09/07:10pm 34.4 31.8 3.3 14 16.6 W 6 7 3 4 - - 0.0
09/07:00pm 34.5 31.9 3.4 14 16.6 WNW 6 6 3 3 - - 0.0
09/06:50pm 34.6 31.5 3.4 14 16.7 NW 9 11 5 6 - - 0.0
09/06:40pm 34.9 31.7 3.2 13 16.9 NW 9 11 5 6 - - 0.0
09/06:30pm 35.1 31.9 3.1 13 17.0 NW 9 9 5 5 - - 0.0
09/06:20pm 35.3 32.6 3.6 14 17.0 WNW 7 9 4 5 - - 0.0
09/06:10pm 35.9 33.6 4.7 14 17.1 WSW 6 7 3 4 - - 0.0
09/06:00pm 35.6 32.7 4.7 14 16.9 WNW 9 11 5 6 - - 0.0
09/05:50pm 35.9 33.6 4.7 14 17.1 NNW 6 7 3 4 - - 0.0
09/05:40pm 35.8 33.3 4.8 14 17.0 W 7 11 4 6 - - 0.0
09/05:30pm 36.2 33.7 4.5 14 17.4 NW 7 11 4 6 - - 0.0
09/05:20pm 36.3 33.5 5.1 14 17.3 NNW 9 11 5 6 - - 0.0
09/05:10pm 36.2 33.5 5.5 15 17.1 NW 9 13 5 7 - - 0.0
09/05:00pm 36.4 33.2 5.2 14 17.3 WNW 11 17 6 9 - - 0.0
09/04:50pm 36.5 34.3 6.1 15 17.1 NNW 7 11 4 6 - - 0.0
09/04:40pm 36.7 34.2 6.7 16 17.0 NNW 9 13 5 7 - - 0.0
09/04:30pm 36.9 34.9 6.9 16 17.1 WNW 7 9 4 5 - - 0.0
09/04:20pm 36.7 34.8 7.7 17 16.7 NW 7 13 4 7 - - 0.0
09/04:10pm 36.4 34.5 6.6 16 16.9 NNW 6 9 3 5 - - 0.0
09/04:00pm 36.6 34.3 4.8 14 17.5 NW 6 9 3 5 - - 0.0
09/03:50pm 36.6 33.8 5.1 14 17.4 NW 9 15 5 8 - - 0.0
09/03:40pm 36.5 33.5 6.2 15 17.1 WNW 11 17 6 9 - - 0.0
09/03:30pm 36.5 34.5 7.3 16 16.7 NW 7 11 4 6 - - 0.0
09/03:20pm 35.4 32.3 7.1 17 16.1 NW 13 15 7 8 - - 0.0
09/03:10pm 35.8 33.8 7.3 17 16.3 W 7 11 4 6 - - 0.0
09/03:00pm 36.4 33.9 6.7 16 16.8 W 9 15 5 8 - - 0.0
09/02:50pm 35.6 32.5 3.5 13 17.3 NW 9 11 5 6 - - 0.0
09/02:40pm 35.6 32.4 5.3 15 16.8 WNW 11 15 6 8 - - 0.0
09/02:30pm 35.2 32.8 6.9 17 16.0 NW 9 13 5 7 - - 0.0
09/02:20pm 35.0 32.6 8.8 20 15.2 WNW 11 17 6 9 - - 0.0
09/02:10pm 34.8 32.6 9.4 21 14.9 NW 11 15 6 8 - - 0.0
09/02:00pm 34.4 32.4 10.0 22 14.4 WNW 11 15 6 8 - - 0.0
09/01:50pm 34.1 31.7 10.0 23 14.2 NW 13 17 7 9 - - 0.0
09/01:40pm 33.9 31.7 10.8 24 13.8 NNW 13 15 7 8 - - 0.0
09/01:30pm 33.5 31.6 10.4 24 13.7 NW 11 15 6 8 - - 0.0
09/01:20pm 33.1 31.3 12.1 27 12.7 WNW 13 20 7 11 - - 0.0
09/01:10pm 33.9 32.3 11.5 25 13.5 NNW 11 15 6 8 - - 0.0
09/01:00pm 33.7 32.7 12.2 27 13.1 NNW 9 13 5 7 - - 0.0
09/12:50pm 33.3 32.0 12.4 28 12.7 NNW 11 13 6 7 - - 0.0
09/12:40pm 32.9 31.9 12.2 28 12.6 NNW 9 11 5 6 - - 0.0
09/12:30pm 32.6 31.2 12.1 28 12.4 NW 11 13 6 7 - - 0.0
09/12:20pm 33.0 32.1 12.6 29 12.5 N 9 11 5 6 - - 0.0
09/12:10pm 31.7 30.5 12.8 31 11.5 N 11 13 6 7 - - 0.0
09/12:00pm 32.3 31.6 13.1 31 11.8 NNW 9 13 5 7 - - 0.0
09/11:50am 31.6 30.5 13.0 32 11.4 NNW 11 13 6 7 - - 0.0
09/11:40am 31.6 30.7 12.6 31 11.5 N 9 13 5 7 - - 0.0
09/11:30am 30.9 29.6 12.5 32 11.1 N 11 13 6 7 - - 0.0
09/11:20am 30.7 29.5 12.8 33 10.9 N 11 15 6 8 - - 0.0
09/11:10am 30.2 29.6 13.5 36 10.2 N 9 13 5 7 - - 0.0
09/11:00am 29.2 27.8 13.4 38 9.6 N 13 19 7 10 - - 0.0
09/10:50am 29.4 28.5 13.6 38 9.7 NNW 11 15 6 8 - - 0.0
09/10:40am 28.5 27.5 13.5 39 9.1 N 11 13 6 7 - - 0.0
09/10:30am 28.9 28.4 13.8 39 9.2 NW 9 11 5 6 - - 0.0
09/10:20am 28.1 27.1 13.5 40 8.9 NNW 11 15 6 8 - - 0.0
09/10:10am 27.6 26.7 13.7 42 8.5 NNW 11 15 6 8 - - 0.0
09/10:00am 27.6 26.7 13.6 42 8.5 N 11 13 6 7 - - 0.0
09/09:50am 26.9 25.7 13.9 44 7.9 N 13 15 7 8 - - 0.0
09/09:40am 26.7 25.4 13.7 44 7.9 N 13 15 7 8 - - 0.0
09/09:30am 26.7 25.8 13.7 44 7.9 N 11 13 6 7 - - 0.0
09/09:20am 26.5 26.0 13.9 45 7.7 N 9 15 5 8 - - 0.0
09/09:10am 26.1 25.3 13.9 47 7.4 N 11 17 6 9 - - 0.0
09/09:00am 25.7 25.2 13.9 48 7.1 NNE 9 11 5 6 - - 0.0
09/08:50am 25.3 25.2 14.0 49 6.8 NNE 7 9 4 5 - - 0.0
09/08:40am 24.9 24.9 14.2 51 6.5 NE 7 9 4 5 - - 0.0
09/08:30am 24.3 24.2 14.0 52 6.2 ENE 7 9 4 5 - - 0.0
09/08:20am 23.8 23.7 13.9 54 6.0 ENE 7 7 4 4 - - 0.0
09/08:10am 23.5 23.6 14.0 55 5.7 ENE 6 7 3 4 - - 0.0
09/08:00am 23.0 23.1 13.9 56 5.5 ENE 6 7 3 4 - - 0.0
09/07:50am 22.3 22.3 13.6 58 5.2 E 6 6 3 3 - - 0.0
09/07:40am 21.5 21.3 13.7 61 4.6 E 7 7 4 4 - - 0.0
09/07:30am 21.1 21.1 13.7 62 4.4 E 6 7 3 4 - - 0.0
09/07:20am 20.4 20.2 13.6 65 4.0 E 7 9 4 5 - - 0.0
09/07:10am 19.9 19.7 13.5 66 3.8 E 7 7 4 4 - - 0.0
09/07:00am 19.6 19.6 13.5 68 3.6 E 6 7 3 4 - - 0.0
09/06:50am 19.4 19.2 13.5 68 3.5 E 7 9 4 5 - - 0.0
09/06:40am 19.3 19.0 13.4 68 3.4 E 7 9 4 5 - - 0.0
09/06:30am 19.3 19.0 13.4 68 3.4 E 7 7 4 4 - - 0.0
09/06:20am 19.4 19.1 13.4 68 3.5 E 7 9 4 5 - - 0.0
09/06:10am 19.3 19.0 13.4 68 3.4 E 7 7 4 4 - - 0.0
09/06:00am 19.4 18.8 13.4 68 3.5 E 9 9 5 5 - - 0.0
09/05:50am 19.5 19.2 13.4 68 3.6 E 7 9 4 5 - - 0.0
09/05:40am 19.7 19.0 13.3 66 3.7 E 9 11 5 6 - - 0.0
09/05:30am 19.7 19.0 13.3 66 3.7 E 9 9 5 5 - - 0.0
09/05:20am 19.8 19.5 13.4 66 3.8 E 7 9 4 5 - - 0.0
09/05:10am 19.9 19.2 13.3 65 3.9 E 9 9 5 5 - - 0.0
09/05:00am 19.9 19.6 13.3 65 3.9 ENE 7 9 4 5 - - 0.0
09/04:50am 20.1 19.8 13.3 65 4.0 ENE 7 7 4 4 - - 0.0
09/04:40am 20.3 20.0 13.4 64 4.1 ENE 7 9 4 5 - - 0.0
09/04:30am 20.3 20.0 13.3 64 4.1 ENE 7 9 4 5 - - 0.0
09/04:20am 20.5 19.9 13.4 63 4.2 ENE 9 9 5 5 - - 0.0
09/04:10am 20.7 20.0 13.3 62 4.3 ENE 9 11 5 6 - - 0.0
09/04:00am 20.9 19.9 13.3 62 4.5 ENE 11 13 6 7 - - 0.0
09/03:50am 21.0 20.0 13.3 61 4.5 ENE 11 13 6 7 - - 0.0
09/03:40am 21.2 20.1 13.2 60 4.7 ENE 11 13 6 7 - - 0.0
09/03:30am 21.3 20.2 13.2 60 4.8 ENE 11 15 6 8 - - 0.0
09/03:20am 21.4 20.3 13.2 59 4.8 ENE 11 15 6 8 - - 0.0
09/03:10am 21.7 20.2 13.2 58 5.0 E 13 15 7 8 - - 0.0
09/03:00am 21.8 20.4 13.3 58 5.0 E 13 15 7 8 - - 0.0
09/02:50am 21.9 20.4 13.2 57 5.1 ESE 13 17 7 9 - - 0.0
09/02:40am 22.0 20.2 13.3 57 5.1 ESE 15 15 8 8 - - 0.0
09/02:30am 22.1 20.6 13.2 57 5.3 ESE 13 15 7 8 - - 0.0
09/02:20am 22.3 20.8 13.2 56 5.4 ESE 13 13 7 7 - - 0.0
09/02:10am 22.5 21.4 13.1 55 5.5 ESE 11 13 6 7 - - 0.0
09/02:00am 22.6 21.5 13.1 55 5.6 ESE 11 13 6 7 - - 0.0
09/01:50am 22.8 21.6 12.9 53 5.8 ESE 11 13 6 7 - - 0.0
09/01:40am 23.0 21.4 12.8 52 6.0 ESE 13 13 7 7 - - 0.0
09/01:30am 23.1 21.8 12.6 51 6.2 ESE 11 13 6 7 - - 0.0
09/01:20am 23.2 21.8 12.2 50 6.4 ESE 11 13 6 7 - - 0.0
09/01:10am 23.5 22.0 11.8 47 6.8 ESE 11 13 6 7 - - 0.0
09/01:00am 23.7 22.0 11.3 45 7.1 ESE 11 13 6 7 - - 0.0
09/12:50am 24.0 22.2 10.8 43 7.5 ESE 11 13 6 7 - - 0.0
09/12:40am 24.3 22.3 10.1 40 8.0 ESE 11 11 6 6 - - 0.0
09/12:30am 24.6 22.5 9.8 39 8.3 ESE 11 13 6 7 - - 0.0
09/12:20am 24.9 22.6 8.9 36 8.9 ESE 11 13 6 7 - - 0.0
09/12:10am 25.2 22.5 8.8 35 9.1 ESE 13 13 7 7 - - 0.0
09/12:00am 25.4 22.9 8.4 34 9.4 ESE 11 13 6 7 - - 0.0
 
Date/Time
EDT
Temp
°C
App
Temp
°C
Dew
Point
°C
Rel
Hum
%
Delta-T
°C
Wind Press
QNH
hPa
Press
MSL
hPa
Rain since
9am
mm
Dir  Spd
km/h
Gust
km/h
Spd
kts
Gust
kts
08/11:50pm 25.7 23.0 7.3 31 10.0 ESE 11 11 6 6 - - 0.0
08/11:40pm 26.1 23.2 6.5 28 10.5 ESE 11 11 6 6 - - 0.0
08/11:30pm 26.3 23.1 4.9 25 11.2 ESE 11 11 6 6 - - 0.0
08/11:20pm 26.3 23.4 4.9 25 11.2 ESE 9 11 5 6 - - 0.0
08/11:10pm 26.6 23.7 4.6 24 11.4 ESE 9 11 5 6 - - 0.0
08/11:00pm 26.7 23.4 4.4 24 11.6 SE 11 11 6 6 - - 0.0
08/10:50pm 27.0 23.9 3.4 22 12.1 SE 9 11 5 6 - - 0.0
08/10:40pm 27.2 23.9 2.6 20 12.4 SE 9 11 5 6 - - 0.0
08/10:30pm 27.1 23.1 0.8 18 12.8 SE 11 11 6 6 - - 0.0
08/10:20pm 27.4 23.2 -1.1 15 13.5 SE 11 11 6 6 - - 0.0
08/10:10pm 27.1 23.2 -1.8 15 13.5 ESE 9 11 5 6 - - 0.0
08/10:00pm 28.0 23.5 -3.5 12 14.3 SE 11 13 6 7 - - 0.0
08/09:50pm 29.1 24.0 -5.0 10 15.2 S 13 15 7 8 - - 0.0
08/09:40pm 29.1 24.0 -5.2 10 15.3 S 13 13 7 7 - - 0.0
08/09:30pm 29.0 23.9 -5.5 10 15.3 S 13 13 7 7 - - 0.0
08/09:20pm 29.2 24.1 -5.5 10 15.4 SSW 13 13 7 7 - - 0.0
08/09:10pm 29.4 25.4 -5.4 10 15.5 SSW 7 11 4 6 - - 0.0
08/09:00pm 29.7 25.3 -5.6 9 15.7 SSW 9 13 5 7 - - 0.0
08/08:50pm 29.9 24.7 -5.7 9 15.8 SW 13 13 7 7 - - 0.0
08/08:40pm 30.1 25.0 -5.6 9 15.9 SW 13 13 7 7 - - 0.0
08/08:30pm 30.4 25.3 -5.4 9 16.1 SW 13 13 7 7 - - 0.0
08/08:20pm 30.5 25.8 -5.4 9 16.1 SW 11 13 6 7 - - 0.0
08/08:10pm 30.7 26.0 -5.3 9 16.2 WSW 11 11 6 6 - - 0.0
08/08:00pm 31.0 26.3 -5.2 9 16.4 WSW 11 11 6 6 - - 0.0
08/07:50pm 31.5 26.8 -5.3 9 16.7 WSW 11 11 6 6 - - 0.0
08/07:40pm 31.9 27.6 -5.3 9 16.9 WSW 9 11 5 6 - - 0.0
08/07:30pm 32.2 27.9 -5.1 9 17.1 WSW 9 11 5 6 - - 0.0
08/07:20pm 32.6 28.3 -5.1 8 17.3 WSW 9 11 5 6 - - 0.0
08/07:10pm 33.0 28.7 -5.2 8 17.5 WSW 9 11 5 6 - - 0.0
08/07:00pm 33.4 29.5 -5.1 8 17.8 W 7 13 4 7 - - 0.0
08/06:50pm 33.5 29.5 -5.2 8 17.8 WSW 7 9 4 5 - - 0.0
08/06:40pm 33.8 29.9 -5.0 8 18.0 WSW 7 11 4 6 - - 0.0
08/06:30pm 34.0 30.0 -5.2 8 18.1 W 7 11 4 6 - - 0.0
08/06:20pm 33.9 29.6 -4.8 8 18.0 WSW 9 11 5 6 - - 0.0
08/06:10pm 34.3 30.6 -5.0 8 18.3 SSW 6 13 3 7 - - 0.0
08/06:00pm 34.7 30.0 -5.0 7 18.5 WSW 11 15 6 8 - - 0.0
08/05:50pm 34.8 30.9 -5.1 7 18.6 W 7 11 4 6 - - 0.0
08/05:40pm 34.8 30.5 -5.3 7 18.6 WSW 9 13 5 7 - - 0.0
08/05:30pm 34.8 30.5 -4.9 7 18.6 W 9 13 5 7 - - 0.0
08/05:20pm 34.8 30.8 -5.4 7 18.7 S 7 15 4 8 - - 0.0
08/05:10pm 34.7 30.0 -5.5 7 18.6 W 11 13 6 7 - - 0.0
08/05:00pm 35.1 30.8 -5.1 7 18.8 W 9 13 5 7 - - 0.0
08/04:50pm 35.0 29.9 -5.2 7 18.7 W 13 19 7 10 - - 0.0
08/04:40pm 35.3 31.0 -5.3 7 18.9 WNW 9 13 5 7 - - 0.0
08/04:30pm 35.2 30.5 -4.8 7 18.8 W 11 15 6 8 - - 0.0
08/04:20pm 36.1 32.3 -5.1 7 19.4 SSW 6 9 3 5 - - 0.0
08/04:10pm 34.8 30.1 -5.0 7 18.6 SW 11 17 6 9 - - 0.0
08/04:00pm 34.7 30.3 -5.5 7 18.6 WSW 9 15 5 8 - - 0.0
08/03:50pm 34.8 29.7 -5.2 7 18.6 W 13 15 7 8 - - 0.0
08/03:40pm 34.8 29.4 -4.9 7 18.6 WSW 15 19 8 10 - - 0.0
08/03:30pm 35.2 31.4 -3.8 8 18.6 NNE 7 11 4 6 - - 0.0
08/03:20pm 35.0 30.8 -3.9 8 18.5 NW 9 13 5 7 - - 0.0
08/03:10pm 34.6 29.7 -3.3 9 18.2 W 13 20 7 11 - - 0.0
08/03:00pm 35.3 31.2 -3.0 8 18.5 NW 9 11 5 6 - - 0.0
08/02:50pm 34.3 29.9 -2.4 9 17.8 NNW 11 15 6 8 - - 0.0
08/02:40pm 34.9 30.5 -2.7 9 18.2 WNW 11 15 6 8 - - 0.0
08/02:30pm 35.2 31.2 -2.3 9 18.3 W 9 15 5 8 - - 0.0
08/02:20pm 34.5 31.2 -1.5 10 17.8 NNE 6 7 3 4 - - 0.0
08/02:10pm 34.5 30.3 -0.8 10 17.6 WNW 11 13 6 7 - - 0.0
08/02:00pm 34.9 31.1 -0.9 10 17.9 NW 9 17 5 9 - - 0.0
08/01:50pm 34.0 30.2 -0.7 11 17.3 S 9 13 5 7 - - 0.0
08/01:40pm 33.4 29.0 0.5 12 16.6 SSW 13 15 7 8 - - 0.0
08/01:30pm 33.7 29.8 1.0 12 16.7 WSW 11 15 6 8 - - 0.0
08/01:20pm 34.0 29.7 1.1 12 16.9 W 13 17 7 9 - - 0.0
08/01:10pm 35.0 31.8 1.0 11 17.5 S 7 9 4 5 - - 0.0
08/01:00pm 34.5 31.4 1.4 12 17.1 W 7 11 4 6 - - 0.0
08/12:50pm 34.3 31.3 1.0 12 17.1 SSW 6 7 3 4 - - 0.0
08/12:40pm 33.2 30.0 0.7 12 16.5 SSE 7 11 4 6 - - 0.0
08/12:30pm 33.1 29.6 1.2 13 16.3 S 9 15 5 8 - - 0.0
08/12:20pm 32.1 28.2 1.0 13 15.7 S 11 13 6 7 - - 0.0
08/12:10pm 32.9 29.9 0.9 13 16.2 S 6 9 3 5 - - 0.0
08/12:00pm 32.2 29.1 1.6 14 15.7 S 7 11 4 6 - - 0.0
08/11:50am 32.7 29.9 2.0 14 15.9 SSW 6 9 3 5 - - 0.0
08/11:40am 32.1 29.3 2.1 15 15.5 NNE 6 7 3 4 - - 0.0
08/11:30am 32.0 29.7 2.7 15 15.2 NNW 4 9 2 5 - - 0.0
08/11:20am 30.8 28.1 3.6 18 14.3 SE 7 17 4 9 - - 0.0
08/11:10am 32.2 30.0 3.6 16 15.1 SE 4 7 2 4 - - 0.0
08/11:00am 30.8 28.7 3.9 18 14.2 S 4 7 2 4 - - 0.0
08/10:50am 29.5 26.9 4.1 20 13.3 E 7 9 4 5 - - 0.0
08/10:40am 29.6 27.1 5.0 21 13.1 ESE 7 9 4 5 - - 0.0
08/10:30am 29.2 26.7 4.5 20 13.0 ENE 7 11 4 6 - - 0.0
08/10:20am 29.3 26.9 5.3 22 12.8 SE 7 9 4 5 - - 0.0
08/10:10am 29.1 26.6 4.5 21 13.0 ESE 7 11 4 6 - - 0.0
08/10:00am 28.6 26.4 6.0 24 12.2 E 7 11 4 6 - - 0.0
08/09:50am 28.2 26.0 6.2 24 11.9 ENE 7 9 4 5 - - 0.0
08/09:40am 28.1 25.6 5.0 23 12.2 ENE 7 9 4 5 - - 0.0
08/09:30am 27.5 24.9 6.1 25 11.5 ENE 9 11 5 6 - - 0.0
08/09:20am 27.5 25.3 6.1 25 11.5 ENE 7 7 4 4 - - 0.0
08/09:10am 26.4 24.3 6.7 28 10.6 E 7 11 4 6 - - 0.0
08/09:00am 25.7 23.2 6.4 29 10.3 E 9 13 5 7 - - 0.0
08/08:50am 25.2 22.3 6.3 29 10.1 E 11 11 6 6 - - 0.0
08/08:40am 25.2 23.0 6.4 30 10.0 E 7 9 4 5 - - 0.0
08/08:30am 24.3 22.1 6.2 31 9.6 E 7 9 4 5 - - 0.0
08/08:20am 23.4 20.8 6.1 32 9.1 E 9 11 5 6 - - 0.0
08/08:10am 22.9 20.3 5.9 33 8.9 E 9 11 5 6 - - 0.0
08/08:00am 22.5 19.7 5.1 32 8.9 ESE 9 11 5 6 - - 0.0
08/07:50am 21.7 18.4 4.8 33 8.6 ESE 11 13 6 7 - - 0.0
08/07:40am 21.0 17.3 4.4 33 8.3 ESE 13 13 7 7 - - 0.0
08/07:30am 20.2 16.3 3.4 33 8.2 ESE 13 15 7 8 - - 0.0
08/07:20am 19.8 15.8 2.9 32 8.1 ESE 13 15 7 8 - - 0.0
08/07:10am 19.3 14.9 2.6 33 8.0 ESE 15 15 8 8 - - 0.0
08/07:00am 19.2 14.7 2.4 32 8.0 ESE 15 15 8 8 - - 0.0
08/06:50am 19.0 14.5 2.0 32 8.0 ESE 15 17 8 9 - - 0.0
08/06:40am 18.8 14.0 0.3 29 8.4 ESE 15 15 8 8 - - 0.0
08/06:30am 18.4 13.5 -0.4 28 8.4 ESE 15 15 8 8 - - 0.0
08/06:20am 18.0 13.4 -1.3 27 8.4 ESE 13 15 7 8 - - 0.0
08/06:10am 17.6 12.9 -1.5 27 8.3 ESE 13 13 7 7 - - 0.0
08/06:00am 17.9 13.2 -1.7 26 8.5 ESE 13 13 7 7 - - 0.0
08/05:50am 18.3 14.0 -1.7 25 8.7 ESE 11 13 6 7 - - 0.0
08/05:40am 18.6 13.9 -1.7 25 8.8 ESE 13 13 7 7 - - 0.0
08/05:30am 19.0 14.7 -1.5 25 9.0 ESE 11 13 6 7 - - 0.0
08/05:20am 19.5 15.2 -1.5 24 9.3 ESE 11 13 6 7 - - 0.0
08/05:10am 19.7 15.4 -1.5 24 9.4 ESE 11 11 6 6 - - 0.0
08/05:00am 19.9 15.6 -1.7 23 9.5 ESE 11 13 6 7 - - 0.0
08/04:50am 20.0 16.1 -1.7 23 9.6 E 9 11 5 6 - - 0.0
08/04:40am 20.3 16.0 -1.9 22 9.8 ESE 11 13 6 7 - - 0.0
08/04:30am 20.4 15.7 -2.0 22 9.8 SE 13 17 7 9 - - 0.0
08/04:20am 20.4 15.3 -2.2 21 9.9 SE 15 17 8 9 - - 0.0
08/04:10am 20.7 15.9 -2.5 21 10.1 SE 13 13 7 7 - - 0.0
08/04:00am 21.2 16.0 -2.8 20 10.5 SE 15 17 8 9 - - 0.0
08/03:50am 21.6 16.0 -3.3 18 10.8 SSE 17 20 9 11 - - 0.0
08/03:40am 21.9 15.9 -3.4 18 11.0 SSE 19 20 10 11 - - 0.0
08/03:30am 22.3 16.2 -3.8 17 11.3 SSE 19 24 10 13 - - 0.0
08/03:20am 22.4 16.3 -4.2 16 11.4 SSE 19 20 10 11 - - 0.0
08/03:10am 22.6 15.9 -4.3 16 11.5 SSE 22 26 12 14 - - 0.0
08/03:00am 22.5 15.8 -4.1 16 11.4 SSE 22 24 12 13 - - 0.0
08/02:50am 22.5 15.9 -3.7 17 11.3 SSE 22 24 12 13 - - 0.0
08/02:40am 22.5 15.9 -3.5 17 11.3 SSE 22 24 12 13 - - 0.0
08/02:30am 22.6 16.0 -3.5 17 11.4 SSE 22 26 12 14 - - 0.0
08/02:20am 22.6 16.4 -3.3 17 11.3 SSE 20 24 11 13 - - 0.0
08/02:10am 22.8 15.9 -2.9 18 11.3 S 24 28 13 15 - - 0.0
08/02:00am 23.0 16.8 -3.0 17 11.5 SSE 20 22 11 12 - - 0.0
08/01:50am 23.2 16.6 -3.2 17 11.6 S 22 26 12 14 - - 0.0
08/01:40am 23.4 16.5 -2.8 17 11.6 S 24 26 13 14 - - 0.0
08/01:30am 23.4 17.3 -2.2 18 11.5 S 20 24 11 13 - - 0.0
08/01:20am 23.4 17.5 -1.9 18 11.4 S 19 22 10 12 - - 0.0
08/01:10am 23.1 17.6 -2.0 18 11.3 S 17 19 9 10 - - 0.0
08/01:00am 23.0 17.1 -2.1 18 11.3 S 19 22 10 12 - - 0.0
08/12:50am 23.1 17.2 -2.4 18 11.4 S 19 22 10 12 - - 0.0
08/12:40am 23.3 17.4 -2.5 18 11.5 S 19 22 10 12 - - 0.0
08/12:30am 23.3 17.3 -2.8 17 11.6 S 19 22 10 12 - - 0.0
08/12:20am 23.5 17.5 -2.9 17 11.7 S 19 20 10 11 - - 0.0
08/12:10am 23.6 17.6 -3.1 16 11.8 S 19 20 10 11 - - 0.0
08/12:00am 23.7 17.7 -3.3 16 11.9 S 19 20 10 11 - - 0.0
 
Date/Time
EDT
Temp
°C
App
Temp
°C
Dew
Point
°C
Rel
Hum
%
Delta-T
°C
Wind Press
QNH
hPa
Press
MSL
hPa
Rain since
9am
mm
Dir  Spd
km/h
Gust
km/h
Spd
kts
Gust
kts
07/11:50pm 23.8 17.7 -3.5 16 12.0 S 19 19 10 10 - - 0.0
07/11:40pm 24.0 18.3 -3.6 15 12.1 S 17 19 9 10 - - 0.0
07/11:30pm 24.1 18.4 -3.6 15 12.2 S 17 17 9 9 - - 0.0
07/11:20pm 24.3 18.6 -3.9 15 12.4 S 17 17 9 9 - - 0.0
07/11:10pm 24.4 18.7 -3.8 15 12.4 S 17 17 9 9 - - 0.0
07/11:00pm 24.5 19.2 -4.0 15 12.5 S 15 17 8 9 - - 0.0
07/10:50pm 24.7 19.4 -4.0 14 12.6 S 15 17 8 9 - - 0.0
07/10:40pm 25.0 19.6 -4.1 14 12.8 SSW 15 15 8 8 - - 0.0
07/10:30pm 25.2 19.8 -4.2 14 12.9 S 15 15 8 8 - - 0.0
07/10:20pm 25.4 20.0 -4.2 14 13.0 S 15 17 8 9 - - 0.0
07/10:10pm 25.6 20.2 -4.3 13 13.2 S 15 17 8 9 - - 0.0
07/10:00pm 25.8 20.4 -4.5 13 13.3 S 15 17 8 9 - - 0.0
07/09:50pm 26.0 20.2 -4.6 13 13.4 S 17 17 9 9 - - 0.0
07/09:40pm 26.0 20.6 -4.8 13 13.5 S 15 17 8 9 - - 0.0
07/09:30pm 26.1 20.6 -5.0 12 13.6 S 15 15 8 8 - - 0.0
07/09:20pm 26.3 20.8 -5.1 12 13.7 S 15 17 8 9 - - 0.0
07/09:10pm 26.5 21.0 -5.3 12 13.8 S 15 17 8 9 - - 0.0
07/09:00pm 26.5 21.3 -6.0 11 14.0 SSW 13 15 7 8 - - 0.0
07/08:50pm 26.8 22.0 -6.2 11 14.2 SSW 11 13 6 7 - - 0.0
07/08:40pm 27.1 22.3 -6.5 10 14.4 SSW 11 11 6 6 - - 0.0
07/08:30pm 27.4 22.5 -6.7 10 14.6 SSW 11 11 6 6 - - 0.0
07/08:20pm 27.6 23.1 -6.7 10 14.7 SSW 9 9 5 5 - - 0.0
07/08:10pm 28.0 23.1 -6.9 9 15.0 SSW 11 13 6 7 - - 0.0
07/08:00pm 28.3 22.6 -7.1 9 15.2 S 15 17 8 9 - - 0.0
07/07:50pm 28.8 22.4 -7.3 9 15.5 S 19 22 10 12 - - 0.0
07/07:40pm 29.4 23.3 -7.4 8 15.8 S 17 19 9 10 - - 0.0
07/07:30pm 29.6 23.9 -7.5 8 15.9 S 15 19 8 10 - - 0.0
07/07:20pm 30.0 23.9 -7.4 8 16.2 S 17 19 9 10 - - 0.0
07/07:10pm 30.7 25.4 -7.5 8 16.6 SSW 13 15 7 8 - - 0.0
07/07:00pm 30.9 25.6 -7.7 8 16.7 SSW 13 19 7 10 - - 0.0

Other formats

Comma delimited format used in spreadsheet applications
http://www.bom.gov.au/fwo/IDN60801/IDN60801.99133.axf

JavaScript Object Notation format (JSON) in row-major order
http://www.bom.gov.au/fwo/IDN60801/IDN60801.99133.json

Data quality

Most of these data are generated automatically and are frequently updated. Quality checks on data are not normally performed. It is possible for incorrect values to appear. Refer to information at About Latest Weather Observations and please check the disclaimer before using these data.